Time;durP1;ratioP1;P1;durP2;ratioP2;P2;SDS_P1;SDS_P2;PMS_P1;PMS_P2;Temp;Humidity;BMP_temperature;BMP_pressure;BME280_temperature;BME280_humidity;BME280_pressure;Samples;Min_cycle;Max_cycle;Signal;HPM_P1;HPM_P2
2023/03/12 00:00:50;;;;;;;;;;;;;;;16.06;44.48;92752.13;5047670;28;20453;-88
2023/03/12 00:03:15;;;;;;;;;;;;;;;16.05;44.32;92745.94;5047270;28;19928;-88
2023/03/12 00:05:40;;;;;;;;;;;;;;;16.07;44.68;92748.16;5038521;28;19925;-89
2023/03/12 00:08:05;;;;;;;;;;;;;;;16.07;44.31;92750.88;5051486;28;19933;-89
2023/03/12 00:10:31;;;;;;;;;;;;;;;16.07;44.52;92756.31;5027947;28;19944;-88
2023/03/12 00:12:56;;;;;;;;;;;;;;;16.07;44.26;92751.63;5045655;28;19932;-88
2023/03/12 00:15:22;;;;;;;;;;;;;;;16.05;44.20;92751.38;5029924;28;21219;-90
2023/03/12 00:17:47;;;;;;;;;;;;;;;16.06;44.09;92766.50;5022629;28;19978;-88
2023/03/12 00:20:12;;;;;;;;;;;;;;;16.08;44.25;92766.72;5047106;28;19925;-88
2023/03/12 00:22:38;;;;;;;;;;;;;;;16.07;44.46;92754.34;5026264;28;19925;-88
2023/03/12 00:25:03;;;;;;;;;;;;;;;16.07;44.66;92762.53;5039598;28;19924;-88
2023/03/12 00:27:31;;;;;;;;;;;;;;;16.07;44.39;92773.44;5059529;28;19952;-88
2023/03/12 00:29:56;;;;;;;;;;;;;;;16.08;44.65;92768.72;5036746;28;19921;-88
2023/03/12 00:32:22;;;;;;;;;;;;;;;16.07;44.38;92769.97;5026060;28;19971;-88
2023/03/12 00:34:50;;;;;;;;;;;;;;;16.10;44.29;92768.94;5037027;28;20344;-88
2023/03/12 00:37:16;;;;;;;;;;;;;;;16.10;44.21;92775.13;5046647;28;19931;-89
2023/03/12 00:39:41;;;;;;;;;;;;;;;16.10;44.24;92777.88;5048251;28;20015;-88
2023/03/12 00:42:06;;;;;;;;;;;;;;;16.09;44.26;92775.66;5038901;28;19924;-89
2023/03/12 00:44:31;;;;;;;;;;;;;;;16.09;44.56;92776.38;5036789;28;19927;-88
2023/03/12 00:46:57;;;;;;;;;;;;;;;16.09;44.57;92776.38;5027992;28;20000;-88
2023/03/12 00:49:22;;;;;;;;;;;;;;;16.09;44.31;92775.66;5035248;28;19932;-89
2023/03/12 00:51:47;;;;;;;;;;;;;;;16.03;44.29;92772.97;5037656;28;20024;-89
2023/03/12 00:54:12;;;;;;;;;;;;;;;16.02;44.29;92774.22;5017810;28;19939;-89
2023/03/12 00:56:38;;;;;;;;;;;;;;;16.02;44.41;92760.59;5043735;28;19924;-88
2023/03/12 00:59:03;;;;;;;;;;;;;;;16.03;44.54;92775.69;5025297;28;19925;-88
2023/03/12 01:01:28;;;;;;;;;;;;;;;16.03;44.74;92770.25;5035758;28;19928;-89
2023/03/12 01:03:54;;;;;;;;;;;;;;;16.05;44.37;92764.28;5043586;28;20361;-90
2023/03/12 01:06:19;;;;;;;;;;;;;;;16.03;44.72;92766.78;5031301;28;20110;-88
2023/03/12 01:08:44;;;;;;;;;;;;;;;16.00;44.76;92760.38;5035553;28;19929;-88
2023/03/12 01:11:16;;;;;;;;;;;;;;;16.00;44.52;92765.84;5027208;28;19927;-88
2023/03/12 01:13:41;;;;;;;;;;;;;;;16.01;44.50;92772.03;5043778;28;19994;-89
2023/03/12 01:16:07;;;;;;;;;;;;;;;16.00;44.62;92763.09;5047785;28;20371;-89
2023/03/12 01:18:32;;;;;;;;;;;;;;;16.04;44.32;92769.00;5038590;28;19935;-89
2023/03/12 01:20:58;;;;;;;;;;;;;;;16.05;44.69;92769.72;5031022;28;19932;-89
2023/03/12 01:23:23;;;;;;;;;;;;;;;16.04;44.69;92774.44;5030714;28;20350;-88
2023/03/12 01:25:50;;;;;;;;;;;;;;;16.03;44.45;92772.22;5031516;28;20299;-89
2023/03/12 01:28:15;;;;;;;;;;;;;;;15.99;44.80;92766.34;5045236;28;20072;-88
2023/03/12 01:30:41;;;;;;;;;;;;;;;15.99;44.70;92767.09;5047242;28;20011;-88
2023/03/12 01:33:06;;;;;;;;;;;;;;;15.98;44.11;92773.03;5025890;28;20399;-88
2023/03/12 01:35:34;;;;;;;;;;;;;;;15.99;44.59;92769.81;5040482;28;19931;-89
2023/03/12 01:37:59;;;;;;;;;;;;;;;15.99;44.79;92777.97;5024017;28;19987;-88
2023/03/12 01:40:27;;;;;;;;;;;;;;;16.00;44.96;92781.44;5030072;28;20355;-88
2023/03/12 01:42:54;;;;;;;;;;;;;;;15.99;44.38;92777.97;5038351;28;20467;-88
2023/03/12 01:45:38;;;;;;;;;;;;;;;15.98;44.57;92775.75;5036628;28;19932;-88
2023/03/12 01:48:03;;;;;;;;;;;;;;;15.95;44.00;92769.34;5040179;28;20387;-88
2023/03/12 01:50:28;;;;;;;;;;;;;;;16.00;44.18;92765.09;5045441;28;19963;-88
2023/03/12 01:52:54;;;;;;;;;;;;;;;16.01;44.55;92763.84;5025964;28;19929;-88
2023/03/12 01:55:19;;;;;;;;;;;;;;;16.02;44.59;92766.03;5046910;28;20011;-88
2023/03/12 01:57:46;;;;;;;;;;;;;;;16.00;44.67;92773.28;5045824;28;19928;-89
2023/03/12 02:00:12;;;;;;;;;;;;;;;15.99;44.51;92760.88;5025984;28;20343;-89
2023/03/12 02:02:38;;;;;;;;;;;;;;;15.98;44.24;92768.31;5028617;28;19928;-88
2023/03/12 02:05:14;;;;;;;;;;;;;;;15.99;44.36;92764.34;5046557;28;19932;-88
2023/03/12 02:07:39;;;;;;;;;;;;;;;15.98;44.34;92762.88;5020125;28;19925;-89
2023/03/12 02:10:04;;;;;;;;;;;;;;;15.97;44.84;92758.66;5028684;28;19924;-88
2023/03/12 02:12:30;;;;;;;;;;;;;;;15.97;44.33;92766.84;5027617;28;19935;-88
2023/03/12 02:14:55;;;;;;;;;;;;;;;15.99;44.77;92775.25;5017802;28;19928;-88
2023/03/12 02:17:20;;;;;;;;;;;;;;;16.00;44.52;92776.00;5042162;28;19961;-88
2023/03/12 02:19:50;;;;;;;;;;;;;;;16.01;44.66;92777.47;5030488;28;19929;-88
2023/03/12 02:22:15;;;;;;;;;;;;;;;15.99;44.47;92767.09;5046091;28;20148;-89
2023/03/12 02:24:46;;;;;;;;;;;;;;;16.00;44.49;92767.81;5028831;28;20011;-88
2023/03/12 02:27:11;;;;;;;;;;;;;;;16.01;44.21;92775.50;5046178;28;19920;-88
2023/03/12 02:29:36;;;;;;;;;;;;;;;16.02;44.41;92778.94;5023881;28;19936;-89
2023/03/12 02:32:03;;;;;;;;;;;;;;;16.03;44.26;92781.16;5022513;28;19956;-89
2023/03/12 02:34:28;;;;;;;;;;;;;;;16.03;44.69;92777.69;5029510;28;20019;-89
2023/03/12 02:36:53;;;;;;;;;;;;;;;16.02;44.69;92782.38;5044948;28;19935;-88
2023/03/12 02:39:19;;;;;;;;;;;;;;;16.02;44.66;92781.69;5016019;28;19978;-89
2023/03/12 02:41:45;;;;;;;;;;;;;;;16.02;44.82;92790.56;5043272;28;19929;-88
2023/03/12 02:44:15;;;;;;;;;;;;;;;16.01;44.21;92782.94;5022134;28;19931;-88
2023/03/12 02:46:41;;;;;;;;;;;;;;;16.00;44.15;92782.19;5025742;28;19928;-88
2023/03/12 02:49:07;;;;;;;;;;;;;;;15.98;44.75;92792.84;5045404;28;19940;-88
2023/03/12 02:51:32;;;;;;;;;;;;;;;15.97;44.77;92796.84;5046494;28;19921;-89
2023/03/12 02:53:58;;;;;;;;;;;;;;;15.98;44.61;92806.50;5023986;28;20331;-89
2023/03/12 02:56:23;;;;;;;;;;;;;;;15.98;44.65;92801.03;5025300;28;19936;-90
2023/03/12 02:58:48;;;;;;;;;;;;;;;16.00;44.67;92812.19;5048765;28;19934;-88
2023/03/12 03:01:14;;;;;;;;;;;;;;;15.98;44.66;92809.22;5031894;28;19964;-88
2023/03/12 03:03:39;;;;;;;;;;;;;;;15.99;44.74;92807.97;5066407;28;20279;-89
2023/03/12 03:06:04;;;;;;;;;;;;;;;16.01;44.50;92819.09;5029572;28;19929;-88
2023/03/12 03:08:29;;;;;;;;;;;;;;;16.00;45.03;92808.72;5051802;28;19928;-89
2023/03/12 03:10:55;;;;;;;;;;;;;;;15.98;44.52;92814.66;5046338;28;20294;-89
2023/03/12 03:13:20;;;;;;;;;;;;;;;15.99;44.56;92810.69;5031663;28;19970;-89
2023/03/12 03:15:45;;;;;;;;;;;;;;;15.98;44.77;92820.13;5041975;28;19938;-88
2023/03/12 03:18:10;;;;;;;;;;;;;;;16.01;44.65;92821.84;5034931;28;19932;-89
2023/03/12 03:20:36;;;;;;;;;;;;;;;16.00;44.57;92827.78;5043790;28;19963;-89
2023/03/12 03:23:01;;;;;;;;;;;;;;;16.00;44.67;92825.06;5030989;28;20382;-88
2023/03/12 03:25:26;;;;;;;;;;;;;;;15.99;44.50;92820.84;5048767;28;19924;-88
2023/03/12 03:27:51;;;;;;;;;;;;;;;16.00;44.67;92827.78;5045746;28;20477;-89
2023/03/12 03:30:17;;;;;;;;;;;;;;;16.00;44.85;92825.81;5016786;28;19925;-88
2023/03/12 03:32:42;;;;;;;;;;;;;;;15.98;44.63;92828.31;5024393;28;19931;-89
2023/03/12 03:35:07;;;;;;;;;;;;;;;15.95;44.60;92834.75;5030829;28;20403;-89
2023/03/12 03:37:33;;;;;;;;;;;;;;;15.94;44.75;92830.56;5031318;28;20024;-88
2023/03/12 03:39:58;;;;;;;;;;;;;;;15.98;44.93;92843.91;5045569;28;19925;-90
2023/03/12 03:42:23;;;;;;;;;;;;;;;16.00;44.10;92833.25;5045414;28;19921;-88
2023/03/12 03:44:48;;;;;;;;;;;;;;;16.01;44.32;92840.19;5026925;28;20058;-90
2023/03/12 03:47:14;;;;;;;;;;;;;;;16.01;44.37;92835.47;5045758;28;19925;-89
2023/03/12 03:49:39;;;;;;;;;;;;;;;16.03;44.18;92840.38;5044493;28;19930;-88
2023/03/12 03:52:05;;;;;;;;;;;;;;;16.05;44.33;92840.63;5029025;28;19924;-89
2023/03/12 03:54:30;;;;;;;;;;;;;;;16.06;44.38;92842.09;5057953;28;20351;-87
2023/03/12 03:56:55;;;;;;;;;;;;;;;16.02;44.41;92844.38;5043798;28;20406;-88
2023/03/12 03:59:21;;;;;;;;;;;;;;;16.01;44.75;92846.38;5030203;28;20074;-88
2023/03/12 04:01:46;;;;;;;;;;;;;;;16.03;43.98;92856.75;5037315;28;19920;-89
2023/03/12 04:04:11;;;;;;;;;;;;;;;16.02;44.21;92863.47;5048140;28;20125;-88
2023/03/12 04:06:36;;;;;;;;;;;;;;;16.02;44.79;92858.72;5041653;28;19925;-88
2023/03/12 04:09:02;;;;;;;;;;;;;;;16.04;44.77;92874.56;5062057;28;20293;-89
2023/03/12 04:11:27;;;;;;;;;;;;;;;16.02;44.30;92877.81;5047104;28;19951;-89
2023/03/12 04:13:52;;;;;;;;;;;;;;;16.00;44.42;92874.88;5027361;28;19936;-88
2023/03/12 04:16:17;;;;;;;;;;;;;;;15.99;44.88;92883.56;5036856;28;19924;-88
2023/03/12 04:18:43;;;;;;;;;;;;;;;16.00;44.42;92876.88;5063735;28;20041;-88
2023/03/12 04:21:08;;;;;;;;;;;;;;;16.02;44.18;92885.28;5031111;28;19928;-88
2023/03/12 04:23:34;;;;;;;;;;;;;;;16.04;44.53;92885.47;5045737;28;19990;-89
2023/03/12 04:25:59;;;;;;;;;;;;;;;16.05;44.64;92886.97;5017971;28;20014;-89
2023/03/12 04:28:24;;;;;;;;;;;;;;;16.03;44.69;92879.28;5030506;28;19928;-88
2023/03/12 04:30:53;;;;;;;;;;;;;;;16.02;44.50;92877.81;5058706;28;19921;-88
2023/03/12 04:33:19;;;;;;;;;;;;;;;15.98;44.25;92869.19;5044350;28;19924;-88
2023/03/12 04:35:51;;;;;;;;;;;;;;;15.99;44.33;92869.94;5047837;28;19929;-87
2023/03/12 04:38:16;;;;;;;;;;;;;;;15.99;44.44;92861.75;5024672;28;20213;-88
2023/03/12 04:40:42;;;;;;;;;;;;;;;15.98;44.34;92873.91;5047240;28;20314;-90
2023/03/12 04:43:07;;;;;;;;;;;;;;;15.97;44.60;92875.16;5040726;28;19928;-88
2023/03/12 04:45:32;;;;;;;;;;;;;;;15.95;44.55;92878.38;5046595;28;20122;-88
2023/03/12 04:47:57;;;;;;;;;;;;;;;15.98;44.44;92882.06;5036551;28;20456;-89
2023/03/12 04:50:23;;;;;;;;;;;;;;;15.99;44.79;92881.56;5034435;28;19975;-88
2023/03/12 04:52:48;;;;;;;;;;;;;;;15.97;44.61;92888.78;5034642;28;19924;-88
2023/03/12 04:55:14;;;;;;;;;;;;;;;15.97;44.45;92886.06;5024728;28;20014;-88
2023/03/12 04:57:39;;;;;;;;;;;;;;;15.96;44.37;92882.59;5030124;28;19936;-88
2023/03/12 05:00:09;;;;;;;;;;;;;;;15.96;44.60;92890.03;5050735;28;19929;-89
2023/03/12 05:02:35;;;;;;;;;;;;;;;15.95;44.93;92885.81;5047035;28;19944;-88
2023/03/12 05:05:00;;;;;;;;;;;;;;;15.95;44.65;92886.56;5051164;28;19924;-88
2023/03/12 05:07:26;;;;;;;;;;;;;;;15.95;44.73;92888.53;5024864;28;20008;-89
2023/03/12 05:09:51;;;;;;;;;;;;;;;15.94;44.61;92890.53;5049302;28;19932;-88
2023/03/12 05:12:16;;;;;;;;;;;;;;;15.92;44.40;92893.03;5050864;28;20016;-88
2023/03/12 05:14:41;;;;;;;;;;;;;;;15.89;45.05;92904.94;5062396;28;19932;-88
2023/03/12 05:17:07;;;;;;;;;;;;;;;15.90;44.75;92900.97;5026010;28;20375;-89
2023/03/12 05:19:32;;;;;;;;;;;;;;;15.88;45.01;92902.72;5039869;28;19932;-89
2023/03/12 05:21:57;;;;;;;;;;;;;;;15.91;44.61;92904.44;5033788;28;19921;-89
2023/03/12 05:24:23;;;;;;;;;;;;;;;15.91;44.79;92901.69;5033945;28;19924;-88
2023/03/12 05:26:48;;;;;;;;;;;;;;;15.89;44.67;92899.47;5050723;28;19924;-88
2023/03/12 05:29:13;;;;;;;;;;;;;;;15.87;44.72;92901.97;5030262;28;20354;-88
2023/03/12 05:31:38;;;;;;;;;;;;;;;15.85;44.51;92909.16;5020479;28;20333;-89
2023/03/12 05:34:04;;;;;;;;;;;;;;;15.87;44.43;92910.16;5049249;28;20083;-88
2023/03/12 05:36:29;;;;;;;;;;;;;;;15.88;44.72;92910.88;5068583;28;20571;-89
2023/03/12 05:38:54;;;;;;;;;;;;;;;15.88;44.53;92910.88;5045292;28;20007;-89
2023/03/12 05:41:24;;;;;;;;;;;;;;;15.88;43.89;92914.34;5043372;28;19994;-89
2023/03/12 05:43:51;;;;;;;;;;;;;;;15.87;44.58;92920.31;5023599;28;20251;-88
2023/03/12 05:46:16;;;;;;;;;;;;;;;15.86;44.25;92925.03;5050316;28;20363;-88
2023/03/12 05:48:41;;;;;;;;;;;;;;;15.85;44.49;92923.53;5047305;28;20019;-88
2023/03/12 05:51:07;;;;;;;;;;;;;;;15.87;44.36;92928.47;5032440;28;20302;-88
2023/03/12 05:53:32;;;;;;;;;;;;;;;15.87;44.38;92934.69;5050512;28;19932;-89
2023/03/12 05:56:04;;;;;;;;;;;;;;;15.89;44.24;92934.91;5049826;28;19956;-88
2023/03/12 05:58:29;;;;;;;;;;;;;;;15.91;44.27;92928.97;5032008;28;19932;-88
2023/03/12 06:00:55;;;;;;;;;;;;;;;15.92;44.13;92935.88;5032835;28;19928;-88
2023/03/12 06:03:20;;;;;;;;;;;;;;;15.91;44.48;92934.41;5049635;28;19962;-88
2023/03/12 06:05:47;;;;;;;;;;;;;;;15.88;44.46;92933.44;5050434;28;19924;-90
2023/03/12 06:08:12;;;;;;;;;;;;;;;15.90;44.18;92935.66;5046396;28;19951;-89
2023/03/12 06:10:38;;;;;;;;;;;;;;;15.91;44.36;92926.97;5049702;28;19970;-88
2023/03/12 06:13:03;;;;;;;;;;;;;;;15.94;44.00;92925.22;5067962;28;19921;-88
2023/03/12 06:15:29;;;;;;;;;;;;;;;15.93;44.27;92929.19;5067971;28;19932;-88
2023/03/12 06:17:54;;;;;;;;;;;;;;;15.91;44.21;92924.25;5027443;28;20288;-89
2023/03/12 06:20:19;;;;;;;;;;;;;;;15.92;44.08;92933.91;5029079;28;20393;-88
2023/03/12 06:22:44;;;;;;;;;;;;;;;15.92;44.12;92933.91;5063210;28;20003;-88
2023/03/12 06:25:11;;;;;;;;;;;;;;;15.92;44.21;92931.19;5045010;28;19925;-89
2023/03/12 06:27:36;;;;;;;;;;;;;;;15.89;44.18;92929.47;5049971;28;20625;-89
2023/03/12 06:30:02;;;;;;;;;;;;;;;15.91;43.94;92932.44;5024945;28;19928;-89
2023/03/12 06:32:27;;;;;;;;;;;;;;;15.92;43.87;92933.16;5056025;28;19924;-88
2023/03/12 06:34:52;;;;;;;;;;;;;;;15.89;43.91;92924.00;5037147;28;20098;-88
2023/03/12 06:37:18;;;;;;;;;;;;;;;15.87;43.65;92929.22;5049373;28;19942;-88
2023/03/12 06:39:43;;;;;;;;;;;;;;;15.88;43.76;92936.16;5028767;28;20066;-89
2023/03/12 06:42:08;;;;;;;;;;;;;;;15.87;44.20;92934.69;5029073;28;19920;-89
2023/03/12 06:44:33;;;;;;;;;;;;;;;15.88;43.96;92929.97;5044208;28;19931;-88
2023/03/12 06:46:59;;;;;;;;;;;;;;;15.87;43.75;92933.94;5049660;28;20295;-88
2023/03/12 06:49:24;;;;;;;;;;;;;;;15.89;43.82;92931.44;5023042;28;20130;-88
2023/03/12 06:51:49;;;;;;;;;;;;;;;15.92;43.66;92927.72;5029860;28;19921;-89
2023/03/12 06:54:15;;;;;;;;;;;;;;;15.93;43.69;92937.38;5045519;28;20405;-88
2023/03/12 06:56:40;;;;;;;;;;;;;;;15.92;43.57;92930.44;5034837;28;19940;-88
2023/03/12 06:59:05;;;;;;;;;;;;;;;15.91;43.95;92937.13;5045484;28;20012;-88
2023/03/12 07:01:30;;;;;;;;;;;;;;;15.92;43.58;92938.63;5029409;28;19951;-88
2023/03/12 07:03:56;;;;;;;;;;;;;;;15.91;43.55;92943.31;5026066;28;20443;-88
2023/03/12 07:06:21;;;;;;;;;;;;;;;15.90;43.63;92930.94;5043769;28;19990;-89
2023/03/12 07:08:46;;;;;;;;;;;;;;;15.90;43.50;92933.66;5034660;28;19924;-89
2023/03/12 07:11:12;;;;;;;;;;;;;;;15.88;43.52;92938.88;5044887;28;19925;-88
2023/03/12 07:13:37;;;;;;;;;;;;;;;15.87;43.92;92936.66;5028123;28;19921;-88
2023/03/12 07:16:03;;;;;;;;;;;;;;;15.88;43.50;92936.16;5039721;28;19925;-88
2023/03/12 07:18:28;;;;;;;;;;;;;;;15.88;43.49;92938.13;5045259;28;19928;-89
2023/03/12 07:20:53;;;;;;;;;;;;;;;15.88;43.35;92935.41;5017887;28;19925;-88
2023/03/12 07:23:18;;;;;;;;;;;;;;;15.88;43.52;92933.44;5027811;28;19924;-88
2023/03/12 07:25:44;;;;;;;;;;;;;;;15.90;43.38;92941.84;5047022;28;19924;-89
2023/03/12 07:28:09;;;;;;;;;;;;;;;15.90;43.62;92935.66;5046395;28;20019;-88
2023/03/12 07:30:34;;;;;;;;;;;;;;;15.92;43.29;92939.34;5020669;28;20379;-88
2023/03/12 07:33:03;;;;;;;;;;;;;;;15.95;43.27;92934.88;5034428;28;20445;-88
2023/03/12 07:35:29;;;;;;;;;;;;;;;15.94;43.58;92938.84;5023867;28;20023;-88
2023/03/12 07:37:54;;;;;;;;;;;;;;;15.95;43.25;92943.81;5037362;28;20023;-89
2023/03/12 07:40:19;;;;;;;;;;;;;;;15.96;43.34;92948.00;5044382;28;19929;-88
2023/03/12 07:42:44;;;;;;;;;;;;;;;15.96;43.65;92941.81;5044975;28;19931;-88
2023/03/12 07:45:10;;;;;;;;;;;;;;;15.98;43.33;92937.34;5030760;28;19979;-88
2023/03/12 07:47:35;;;;;;;;;;;;;;;15.98;43.17;92942.78;5031008;28;20214;-88
2023/03/12 07:50:00;;;;;;;;;;;;;;;16.00;43.35;92939.56;5014158;28;19932;-88
2023/03/12 07:52:26;;;;;;;;;;;;;;;16.02;43.06;92945.97;5044436;28;19929;-88
2023/03/12 07:54:53;;;;;;;;;;;;;;;16.04;43.23;92940.75;5021806;28;19932;-88
2023/03/12 07:57:18;;;;;;;;;;;;;;;16.03;42.97;92947.44;5034072;28;19960;-88
2023/03/12 07:59:43;;;;;;;;;;;;;;;16.06;43.20;92960.06;5044741;28;20410;-88
2023/03/12 08:02:09;;;;;;;;;;;;;;;16.06;43.12;92951.88;5044596;28;19927;-88
2023/03/12 08:04:34;;;;;;;;;;;;;;;16.10;43.37;92948.91;5041330;28;19933;-89
2023/03/12 08:07:00;;;;;;;;;;;;;;;16.12;43.25;92954.59;5041416;28;19933;-88
2023/03/12 08:09:26;;;;;;;;;;;;;;;16.14;43.27;92940.44;5016800;28;20011;-88
2023/03/12 08:11:51;;;;;;;;;;;;;;;16.17;42.74;92947.63;5028364;28;20019;-89
2023/03/12 08:14:16;;;;;;;;;;;;;;;16.18;42.98;92944.38;5044624;28;19927;-88
2023/03/12 08:16:41;;;;;;;;;;;;;;;16.19;42.81;92950.56;5024788;28;19925;-88
2023/03/12 08:19:06;;;;;;;;;;;;;;;16.20;42.86;92952.06;5042948;28;20025;-88
2023/03/12 08:21:32;;;;;;;;;;;;;;;16.19;43.01;92950.56;5033313;28;20321;-89
2023/03/12 08:23:58;;;;;;;;;;;;;;;16.19;42.66;92964.94;5047654;28;19975;-88
2023/03/12 08:26:23;;;;;;;;;;;;;;;16.20;42.71;92960.25;5027833;28;19960;-88
2023/03/12 08:28:48;;;;;;;;;;;;;;;16.20;42.80;92962.97;5038258;28;19925;-88
2023/03/12 08:31:14;;;;;;;;;;;;;;;16.21;43.01;92959.00;5017937;28;19932;-88
2023/03/12 08:33:42;;;;;;;;;;;;;;;16.21;42.96;92964.44;5037362;28;20363;-89
2023/03/12 08:36:07;;;;;;;;;;;;;;;16.21;42.72;92956.28;5026311;28;19955;-88
2023/03/12 08:38:32;;;;;;;;;;;;;;;16.22;43.02;92960.47;5018835;28;20287;-89
2023/03/12 08:40:58;;;;;;;;;;;;;;;16.23;42.75;92964.69;5037436;28;19921;-88
2023/03/12 08:43:23;;;;;;;;;;;;;;;16.23;42.70;92972.88;5046967;28;19986;-88
2023/03/12 08:45:58;;;;;;;;;;;;;;;16.21;43.11;92976.09;5025455;28;19920;-89
2023/03/12 08:48:23;;;;;;;;;;;;;;;16.24;43.10;92983.25;5020685;28;19925;-88
2023/03/12 08:50:49;;;;;;;;;;;;;;;16.25;42.97;92984.72;5042730;28;20405;-88
2023/03/12 08:53:14;;;;;;;;;;;;;;;16.26;42.82;92980.75;5048354;28;20457;-89
2023/03/12 08:55:40;;;;;;;;;;;;;;;16.27;43.03;92976.03;5027000;28;19935;-87
2023/03/12 08:58:05;;;;;;;;;;;;;;;16.25;42.89;92973.81;5064518;28;19928;-90
2023/03/12 09:00:30;;;;;;;;;;;;;;;16.26;42.97;92977.28;5047475;28;19929;-90
2023/03/12 09:02:57;;;;;;;;;;;;;;;16.25;42.87;92973.81;5031237;28;19985;-89
2023/03/12 09:05:23;;;;;;;;;;;;;;;16.24;42.76;92966.88;5048323;28;19937;-89
2023/03/12 09:07:48;;;;;;;;;;;;;;;16.24;42.84;92972.34;5026781;28;20182;-89
2023/03/12 09:10:14;;;;;;;;;;;;;;;16.25;42.78;92975.81;5023390;28;19962;-88
2023/03/12 09:12:39;;;;;;;;;;;;;;;16.24;43.22;92977.78;5034889;28;19925;-89
2023/03/12 09:15:05;;;;;;;;;;;;;;;16.25;42.84;92973.06;5045409;28;20146;-89
2023/03/12 09:17:30;;;;;;;;;;;;;;;16.25;42.89;92978.53;5043271;28;19924;-88
2023/03/12 09:19:55;;;;;;;;;;;;;;;16.25;43.08;92981.25;5030591;28;20334;-88
2023/03/12 09:22:21;;;;;;;;;;;;;;;16.25;42.78;92978.53;5046209;28;20317;-88
2023/03/12 09:24:46;;;;;;;;;;;;;;;16.25;43.01;92978.53;5051179;28;19924;-88
2023/03/12 09:27:11;;;;;;;;;;;;;;;16.25;42.76;92976.53;5038895;28;19925;-89
2023/03/12 09:29:36;;;;;;;;;;;;;;;16.27;42.95;92976.03;5033724;28;19931;-89
2023/03/12 09:32:02;;;;;;;;;;;;;;;16.27;42.75;92978.75;5047312;28;20387;-88
2023/03/12 09:34:27;;;;;;;;;;;;;;;16.26;42.81;92978.03;5049827;28;19951;-88
2023/03/12 09:36:52;;;;;;;;;;;;;;;16.27;42.79;92976.03;5038960;28;19932;-89
2023/03/12 09:39:19;;;;;;;;;;;;;;;16.28;42.57;92982.97;5048825;28;20415;-88
2023/03/12 09:41:46;;;;;;;;;;;;;;;16.26;42.74;92972.56;5027413;28;20015;-88
2023/03/12 09:44:30;;;;;;;;;;;;;;;16.26;42.96;92971.81;5058114;28;19975;-88
2023/03/12 09:46:56;;;;;;;;;;;;;;;16.25;42.64;92971.09;5065355;28;20499;-88
2023/03/12 09:49:25;;;;;;;;;;;;;;;16.26;42.97;92971.81;5029820;28;19935;-88
2023/03/12 09:51:52;;;;;;;;;;;;;;;16.25;42.70;92973.06;5047897;28;19928;-88
2023/03/12 09:54:21;;;;;;;;;;;;;;;16.24;42.68;92980.50;5049789;28;19924;-89
2023/03/12 09:56:46;;;;;;;;;;;;;;;16.24;42.78;92975.06;5041517;28;19963;-89
2023/03/12 09:59:11;;;;;;;;;;;;;;;16.24;42.88;92972.34;5044735;28;19929;-88
2023/03/12 10:01:47;;;;;;;;;;;;;;;16.25;42.64;92976.53;5041686;28;19933;-88
2023/03/12 10:04:12;;;;;;;;;;;;;;;16.25;42.54;92979.28;5025744;28;19959;-88
2023/03/12 10:06:56;;;;;;;;;;;;;;;16.25;42.47;92989.44;5032420;28;19937;-88
2023/03/12 10:09:31;;;;;;;;;;;;;;;16.24;42.78;92977.78;5039300;28;19925;-89
2023/03/12 10:12:02;;;;;;;;;;;;;;;16.25;42.94;92982.00;5032793;28;19929;-88
2023/03/12 10:14:36;;;;;;;;;;;;;;;16.24;42.52;92977.06;5030607;28;20020;-88
2023/03/12 10:17:05;;;;;;;;;;;;;;;16.25;42.54;92973.06;5033092;28;19968;-88
2023/03/12 10:19:34;;;;;;;;;;;;;;;16.26;42.53;92969.09;5034913;28;20366;-88
2023/03/12 10:22:01;;;;;;;;;;;;;;;16.26;42.77;92972.56;5033709;28;19929;-88
2023/03/12 10:24:45;;;;;;;;;;;;;;;16.26;42.29;92969.09;5021098;28;19931;-88
2023/03/12 10:27:11;;;;;;;;;;;;;;;16.27;42.37;92965.13;5034396;28;20280;-88
2023/03/12 10:29:38;;;;;;;;;;;;;;;16.25;42.31;92978.53;5039167;28;20029;-89
2023/03/12 10:32:04;;;;;;;;;;;;;;;16.25;42.01;92975.81;5026115;28;20342;-89
2023/03/12 10:34:41;;;;;;;;;;;;;;;16.20;40.13;92982.06;5037311;28;20280;-89
2023/03/12 10:37:27;;;;;;;;;;;;;;;16.21;41.19;92976.09;5035130;28;20016;-88
2023/03/12 10:39:52;;;;;;;;;;;;;;;16.25;40.87;92984.72;5019671;28;19971;-89
2023/03/12 10:42:22;;;;;;;;;;;;;;;16.26;40.60;92980.75;5045842;28;20348;-88
2023/03/12 10:44:48;;;;;;;;;;;;;;;16.27;40.49;92990.41;5023332;28;20498;-89
2023/03/12 10:47:22;;;;;;;;;;;;;;;16.27;40.95;92979.50;5030104;28;19929;-89
2023/03/12 10:49:49;;;;;;;;;;;;;;;16.28;41.50;92986.44;5039192;28;19972;-88
2023/03/12 10:52:15;;;;;;;;;;;;;;;16.27;41.40;92979.50;5041100;28;20020;-89
2023/03/12 10:54:43;;;;;;;;;;;;;;;16.27;41.35;92982.22;5038020;28;20051;-88
2023/03/12 10:57:08;;;;;;;;;;;;;;;16.26;41.66;92994.38;5022889;28;19961;-88
2023/03/12 10:59:34;;;;;;;;;;;;;;;16.26;41.61;92990.91;5027025;28;19971;-89
2023/03/12 11:02:00;;;;;;;;;;;;;;;16.27;41.47;92989.69;5027563;28;19925;-88
2023/03/12 11:04:25;;;;;;;;;;;;;;;16.27;41.77;93011.50;5044801;28;20302;-89
2023/03/12 11:07:01;;;;;;;;;;;;;;;16.30;41.71;93003.03;5043308;28;20031;-89
2023/03/12 11:09:27;;;;;;;;;;;;;;;16.31;41.57;93004.53;5032135;28;20010;-88
2023/03/12 11:11:52;;;;;;;;;;;;;;;16.32;41.33;92994.34;5041193;28;20027;-89
2023/03/12 11:14:18;;;;;;;;;;;;;;;16.30;41.46;92992.13;5045599;28;19932;-89
2023/03/12 11:16:43;;;;;;;;;;;;;;;16.30;41.88;92996.84;5028163;28;20458;-89
2023/03/12 11:19:11;;;;;;;;;;;;;;;16.31;41.85;92993.63;5021776;28;19932;-88
2023/03/12 11:21:37;;;;;;;;;;;;;;;16.31;41.66;92992.88;5032264;28;20488;-89
2023/03/12 11:24:06;;;;;;;;;;;;;;;16.29;41.85;92985.19;5038031;28;19928;-87
2023/03/12 11:26:34;;;;;;;;;;;;;;;16.30;41.73;92978.50;5022731;28;19932;-88
2023/03/12 11:29:18;;;;;;;;;;;;;;;16.31;41.57;92981.97;5040151;28;19932;-88
2023/03/12 11:31:54;;;;;;;;;;;;;;;16.30;41.40;92981.22;5038685;28;19968;-88
2023/03/12 11:34:20;;;;;;;;;;;;;;;16.30;41.66;92988.66;5036519;28;20016;-88
2023/03/12 11:37:04;;;;;;;;;;;;;;;16.28;41.53;92986.44;5028220;28;20261;-88
2023/03/12 11:39:29;;;;;;;;;;;;;;;16.29;41.82;92998.09;5035303;28;20458;-88
2023/03/12 11:42:07;;;;;;;;;;;;;;;16.29;41.95;92989.91;5033058;28;19933;-87
2023/03/12 11:44:32;;;;;;;;;;;;;;;16.29;41.92;92977.00;5036191;28;20364;-88
2023/03/12 11:47:04;;;;;;;;;;;;;;;16.27;41.47;92979.50;5035529;28;19982;-88
2023/03/12 11:49:42;;;;;;;;;;;;;;;16.28;41.85;92982.97;5037420;28;19933;-88
2023/03/12 11:52:13;;;;;;;;;;;;;;;16.30;42.08;92975.03;5041088;28;20415;-87
2023/03/12 11:54:45;;;;;;;;;;;;;;;16.30;41.93;92980.47;5032634;28;20477;-87
2023/03/12 11:57:10;;;;;;;;;;;;;;;16.31;41.90;92979.25;4976234;28;1839614;-89
2023/03/12 11:59:38;;;;;;;;;;;;;;;16.28;41.95;92986.44;5042161;28;20403;-88
2023/03/12 12:02:21;;;;;;;;;;;;;;;16.28;42.13;92983.72;5027583;28;19932;-87
2023/03/12 12:04:47;;;;;;;;;;;;;;;16.29;42.22;92977.00;5034219;28;19936;-88
2023/03/12 12:07:18;;;;;;;;;;;;;;;16.31;42.31;92971.78;5041534;28;20298;-88
2023/03/12 12:09:56;;;;;;;;;;;;;;;16.31;42.22;92966.34;5043968;28;19929;-87
2023/03/12 12:12:24;;;;;;;;;;;;;;;16.30;42.04;92973.03;5035574;28;19931;-88
2023/03/12 12:14:50;;;;;;;;;;;;;;;16.29;42.38;92979.00;5044185;28;20527;-88
2023/03/12 12:17:27;;;;;;;;;;;;;;;16.28;42.28;92981.00;5045143;28;20204;-87
2023/03/12 12:19:59;;;;;;;;;;;;;;;16.28;42.35;92970.06;5044988;28;20011;-88
2023/03/12 12:22:24;;;;;;;;;;;;;;;16.29;42.61;92974.28;5040953;28;20464;-87
2023/03/12 12:24:49;;;;;;;;;;;;;;;16.30;42.78;92975.03;5045404;28;19960;-87
2023/03/12 12:27:23;;;;;;;;;;;;;;;16.30;42.68;92975.78;5043594;28;19998;-88
2023/03/12 12:29:51;;;;;;;;;;;;;;;16.31;42.39;92962.88;5045141;28;19936;-87
2023/03/12 12:32:18;;;;;;;;;;;;;;;16.31;42.47;92968.31;5045834;28;20031;-88
2023/03/12 12:34:53;;;;;;;;;;;;;;;16.29;42.79;92971.56;5038614;28;19921;-89
2023/03/12 12:37:21;;;;;;;;;;;;;;;16.29;42.78;92960.66;5045190;28;19932;-88
2023/03/12 12:40:25;;;;;;;;;;;;;;;16.31;42.55;92966.34;5034846;28;19936;-88
2023/03/12 12:42:53;;;;;;;;;;;;;;;16.30;42.91;92975.78;5037628;28;20082;-89
2023/03/12 12:45:18;;;;;;;;;;;;;;;16.30;43.15;92969.56;5033392;28;20434;-88